TimeEEST,TemperatureF,Dew PointF,Humidity,Sea Level PressureIn,VisibilityMPH,Wind Direction,Wind SpeedMPH,Gust SpeedMPH,PrecipitationIn,Events,Conditions,WindDirDegrees,DateUTC
5:20 AM,69.8,64.4,83,29.86,6.2,ENE,5.8,-,N/A,,Mostly Cloudy,60,2012-10-15 02:20:00
5:50 AM,68.0,64.4,88,29.86,6.2,NNE,4.6,-,N/A,,Scattered Clouds,20,2012-10-15 02:50:00
6:20 AM,68.0,64.4,88,29.86,6.2,NNE,4.6,-,N/A,,Scattered Clouds,20,2012-10-15 03:20:00
6:50 AM,66.2,62.6,88,29.86,6.2,North,5.8,-,N/A,,Scattered Clouds,360,2012-10-15 03:50:00
7:20 AM,66.2,62.6,88,29.86,6.2,NNE,4.6,-,N/A,,Scattered Clouds,20,2012-10-15 04:20:00
7:50 AM,66.2,62.6,88,29.89,6.2,North,4.6,-,N/A,,Scattered Clouds,10,2012-10-15 04:50:00
8:20 AM,66.2,62.6,88,29.89,6.2,North,4.6,-,N/A,,Scattered Clouds,10,2012-10-15 05:20:00
8:50 AM,68.0,64.4,88,29.89,6.2,NE,4.6,-,N/A,,Scattered Clouds,40,2012-10-15 05:50:00
9:20 AM,68.0,64.4,88,29.89,6.2,NE,4.6,-,N/A,,Scattered Clouds,40,2012-10-15 06:20:00
9:50 AM,71.6,68.0,88,29.92,6.2,NE,5.8,-,N/A,,Scattered Clouds,40,2012-10-15 06:50:00
10:20 AM,73.4,68.0,83,29.92,6.2,NE,5.8,-,N/A,,Partly Cloudy,40,2012-10-15 07:20:00
11:20 AM,73.4,68.0,83,29.92,6.2,WSW,5.8,-,N/A,,Scattered Clouds,240,2012-10-15 08:20:00
11:50 AM,77.0,66.2,69,29.92,6.2,SW,5.8,-,N/A,,Partly Cloudy,220,2012-10-15 08:50:00
12:20 PM,77.0,66.2,69,29.92,6.2,SW,6.9,-,N/A,,Scattered Clouds,220,2012-10-15 09:20:00
12:50 PM,77.0,66.2,69,29.95,6.2,SW,6.9,-,N/A,,Mostly Cloudy,220,2012-10-15 09:50:00
1:20 PM,77.0,66.2,69,29.95,6.2,WSW,5.8,-,N/A,,Mostly Cloudy,240,2012-10-15 10:20:00
1:50 PM,78.8,64.4,61,29.92,6.2,SW,4.6,-,N/A,,Mostly Cloudy,230,2012-10-15 10:50:00
2:20 PM,78.8,64.4,61,29.92,6.2,SW,4.6,-,N/A,,Mostly Cloudy,230,2012-10-15 11:20:00
2:50 PM,77.0,66.2,69,29.92,6.2,West,8.1,-,N/A,,Mostly Cloudy,260,2012-10-15 11:50:00
3:20 PM,75.2,66.2,73,29.92,6.2,West,8.1,-,N/A,,Mostly Cloudy,280,2012-10-15 12:20:00
3:50 PM,75.2,64.4,69,29.92,6.2,SW,12.7,-,N/A,,Mostly Cloudy,230,2012-10-15 12:50:00
4:20 PM,75.2,64.4,69,29.92,6.2,WNW,10.4,-,N/A,,Mostly Cloudy,300,2012-10-15 13:20:00
4:50 PM,73.4,64.4,73,29.92,6.2,West,11.5,-,N/A,Thunderstorm,Mostly Cloudy,280,2012-10-15 13:50:00
5:20 PM,73.4,64.4,73,29.89,6.2,WNW,11.5,-,N/A,Thunderstorm,Mostly Cloudy,290,2012-10-15 14:20:00
5:50 PM,69.8,62.6,78,29.92,6.2,West,9.2,-,N/A,,Mostly Cloudy,270,2012-10-15 14:50:00
6:20 PM,69.8,62.6,78,29.92,6.2,WSW,4.6,-,N/A,,Scattered Clouds,240,2012-10-15 15:20:00
6:50 PM,69.8,64.4,83,29.92,6.2,Calm,Calm,-,N/A,,Scattered Clouds,0,2012-10-15 15:50:00
7:20 PM,69.8,64.4,83,29.92,6.2,WSW,4.6,-,N/A,,Scattered Clouds,250,2012-10-15 16:20:00
7:50 PM,68.0,64.4,88,29.92,6.2,WSW,6.9,-,N/A,,Scattered Clouds,250,2012-10-15 16:50:00
8:20 PM,68.0,64.4,88,29.95,6.2,West,6.9,-,N/A,,Scattered Clouds,260,2012-10-15 17:20:00
8:50 PM,66.2,62.6,88,29.95,6.2,West,6.9,-,N/A,,Scattered Clouds,270,2012-10-15 17:50:00
9:20 PM,66.2,62.6,88,29.98,6.2,West,4.6,-,N/A,,Scattered Clouds,270,2012-10-15 18:20:00